sensor_id;sensor_type;location;lat;lon;timestamp;pressure;altitude;pressure_sealevel;temperature;humidity
82171;BME280;71755;48.038;14.346;2023-09-30T00:01:09;97940.53;;;16.60;75.61
82171;BME280;71755;48.038;14.346;2023-09-30T00:03:42;97930.84;;;16.69;75.63
82171;BME280;71755;48.038;14.346;2023-09-30T00:06:09;97934.78;;;16.97;75.49
82171;BME280;71755;48.038;14.346;2023-09-30T00:08:35;97928.03;;;17.54;74.57
82171;BME280;71755;48.038;14.346;2023-09-30T00:11:07;97933.59;;;17.73;74.11
82171;BME280;71755;48.038;14.346;2023-09-30T00:13:35;97933.50;;;17.88;73.69
82171;BME280;71755;48.038;14.346;2023-09-30T00:16:01;97931.75;;;18.02;74.34
82171;BME280;71755;48.038;14.346;2023-09-30T00:18:28;97943.03;;;18.09;74.52
82171;BME280;71755;48.038;14.346;2023-09-30T00:20:54;97939.88;;;18.31;74.07
82171;BME280;71755;48.038;14.346;2023-09-30T00:23:20;97935.69;;;18.44;73.66
82171;BME280;71755;48.038;14.346;2023-09-30T00:25:47;97949.50;;;18.42;73.79
82171;BME280;71755;48.038;14.346;2023-09-30T00:28:16;97941.00;;;18.54;73.52
82171;BME280;71755;48.038;14.346;2023-09-30T00:30:42;97944.00;;;18.53;73.83
82171;BME280;71755;48.038;14.346;2023-09-30T00:33:11;97945.84;;;18.62;73.78
82171;BME280;71755;48.038;14.346;2023-09-30T00:35:37;97958.56;;;18.62;73.71
82171;BME280;71755;48.038;14.346;2023-09-30T00:38:03;97959.09;;;18.59;74.54
82171;BME280;71755;48.038;14.346;2023-09-30T00:40:29;97963.13;;;18.66;74.56
82171;BME280;71755;48.038;14.346;2023-09-30T00:42:55;97963.44;;;18.60;75.26
82171;BME280;71755;48.038;14.346;2023-09-30T00:45:22;97974.78;;;18.57;75.63
82171;BME280;71755;48.038;14.346;2023-09-30T00:47:48;97970.81;;;18.49;76.19
82171;BME280;71755;48.038;14.346;2023-09-30T00:50:15;97972.47;;;18.45;76.71
82171;BME280;71755;48.038;14.346;2023-09-30T00:52:42;97971.50;;;18.36;77.19
82171;BME280;71755;48.038;14.346;2023-09-30T00:55:09;97978.81;;;18.35;77.63
82171;BME280;71755;48.038;14.346;2023-09-30T00:57:37;97975.66;;;18.23;78.29
82171;BME280;71755;48.038;14.346;2023-09-30T01:00:05;97996.22;;;18.19;78.83
82171;BME280;71755;48.038;14.346;2023-09-30T01:02:32;97987.06;;;18.15;79.40
82171;BME280;71755;48.038;14.346;2023-09-30T01:05:01;97994.69;;;18.08;79.91
82171;BME280;71755;48.038;14.346;2023-09-30T01:07:28;97993.94;;;18.02;80.37
82171;BME280;71755;48.038;14.346;2023-09-30T01:09:55;97994.75;;;18.03;80.48
82171;BME280;71755;48.038;14.346;2023-09-30T01:12:20;98003.97;;;17.97;81.11
82171;BME280;71755;48.038;14.346;2023-09-30T01:14:47;97999.66;;;17.96;81.31
82171;BME280;71755;48.038;14.346;2023-09-30T01:17:13;98002.94;;;17.93;81.40
82171;BME280;71755;48.038;14.346;2023-09-30T01:19:40;98010.75;;;17.94;81.31
82171;BME280;71755;48.038;14.346;2023-09-30T01:22:08;98011.94;;;17.78;82.44
82171;BME280;71755;48.038;14.346;2023-09-30T01:24:42;98010.38;;;17.62;84.44
82171;BME280;71755;48.038;14.346;2023-09-30T01:27:09;98017.19;;;17.54;85.58
82171;BME280;71755;48.038;14.346;2023-09-30T01:29:35;98022.84;;;17.53;84.83
82171;BME280;71755;48.038;14.346;2023-09-30T01:32:06;98028.81;;;17.49;84.38
82171;BME280;71755;48.038;14.346;2023-09-30T01:34:36;98027.72;;;17.50;84.79
82171;BME280;71755;48.038;14.346;2023-09-30T01:37:02;98029.34;;;17.52;85.15
82171;BME280;71755;48.038;14.346;2023-09-30T01:39:28;98021.53;;;17.50;84.29
82171;BME280;71755;48.038;14.346;2023-09-30T01:41:55;98028.28;;;17.47;85.16
82171;BME280;71755;48.038;14.346;2023-09-30T01:44:21;98027.19;;;17.43;85.37
82171;BME280;71755;48.038;14.346;2023-09-30T01:46:47;98029.09;;;17.43;85.36
82171;BME280;71755;48.038;14.346;2023-09-30T01:49:13;98032.06;;;17.41;84.88
82171;BME280;71755;48.038;14.346;2023-09-30T01:51:39;98033.47;;;17.34;85.94
82171;BME280;71755;48.038;14.346;2023-09-30T01:54:06;98042.91;;;17.36;84.73
82171;BME280;71755;48.038;14.346;2023-09-30T01:56:32;98029.09;;;17.43;84.27
82171;BME280;71755;48.038;14.346;2023-09-30T01:58:59;98028.81;;;17.49;83.32
82171;BME280;71755;48.038;14.346;2023-09-30T02:01:26;98029.06;;;17.53;82.43
82171;BME280;71755;48.038;14.346;2023-09-30T02:03:52;98032.59;;;17.48;82.98
82171;BME280;71755;48.038;14.346;2023-09-30T02:06:18;98029.09;;;17.48;83.20
82171;BME280;71755;48.038;14.346;2023-09-30T02:08:44;98035.03;;;17.45;82.27
82171;BME280;71755;48.038;14.346;2023-09-30T02:11:11;98037.97;;;17.54;81.73
82171;BME280;71755;48.038;14.346;2023-09-30T02:13:41;98040.16;;;17.52;81.71
82171;BME280;71755;48.038;14.346;2023-09-30T02:16:12;98049.91;;;17.47;82.04
82171;BME280;71755;48.038;14.346;2023-09-30T02:18:39;98052.03;;;17.50;81.56
82171;BME280;71755;48.038;14.346;2023-09-30T02:21:07;98055.28;;;17.53;81.28
82171;BME280;71755;48.038;14.346;2023-09-30T02:23:35;98064.19;;;17.53;80.94
82171;BME280;71755;48.038;14.346;2023-09-30T02:26:02;98065.03;;;17.48;81.39
82171;BME280;71755;48.038;14.346;2023-09-30T02:28:29;98065.50;;;17.61;79.91
82171;BME280;71755;48.038;14.346;2023-09-30T02:31:00;98076.59;;;17.54;80.14
82171;BME280;71755;48.038;14.346;2023-09-30T02:33:26;98076.63;;;17.49;79.61
82171;BME280;71755;48.038;14.346;2023-09-30T02:35:52;98083.38;;;17.46;80.29
82171;BME280;71755;48.038;14.346;2023-09-30T02:38:18;98080.66;;;17.46;79.74
82171;BME280;71755;48.038;14.346;2023-09-30T02:40:48;98090.69;;;17.41;79.07
82171;BME280;71755;48.038;14.346;2023-09-30T02:43:15;98090.41;;;17.42;78.40
82171;BME280;71755;48.038;14.346;2023-09-30T02:45:42;98094.19;;;17.41;77.97
82171;BME280;71755;48.038;14.346;2023-09-30T02:48:09;98079.84;;;17.46;77.73
82171;BME280;71755;48.038;14.346;2023-09-30T02:50:35;98086.34;;;17.45;77.88
82171;BME280;71755;48.038;14.346;2023-09-30T02:53:01;98089.03;;;17.45;77.05
82171;BME280;71755;48.038;14.346;2023-09-30T02:55:27;98087.16;;;17.45;76.31
82171;BME280;71755;48.038;14.346;2023-09-30T02:57:53;98082.28;;;17.53;76.08
82171;BME280;71755;48.038;14.346;2023-09-30T03:00:21;98093.91;;;17.48;76.28
82171;BME280;71755;48.038;14.346;2023-09-30T03:02:55;98089.34;;;17.48;76.39
82171;BME280;71755;48.038;14.346;2023-09-30T03:05:23;98096.06;;;17.46;76.99
82171;BME280;71755;48.038;14.346;2023-09-30T03:07:49;98100.13;;;17.54;75.23
82171;BME280;71755;48.038;14.346;2023-09-30T03:10:19;98097.94;;;17.56;74.63
82171;BME280;71755;48.038;14.346;2023-09-30T03:12:51;98106.03;;;17.56;74.89
82171;BME280;71755;48.038;14.346;2023-09-30T03:15:17;98106.63;;;17.47;75.28
82171;BME280;71755;48.038;14.346;2023-09-30T03:17:44;98105.25;;;17.45;75.49
82171;BME280;71755;48.038;14.346;2023-09-30T03:20:11;98111.47;;;17.45;75.47
82171;BME280;71755;48.038;14.346;2023-09-30T03:22:42;98106.34;;;17.49;74.86
82171;BME280;71755;48.038;14.346;2023-09-30T03:25:12;98116.34;;;17.48;74.79
82171;BME280;71755;48.038;14.346;2023-09-30T03:27:39;98115.53;;;17.48;74.54
82171;BME280;71755;48.038;14.346;2023-09-30T03:30:06;98115.00;;;17.41;74.86
82171;BME280;71755;48.038;14.346;2023-09-30T03:32:33;98129.31;;;17.41;74.39
82171;BME280;71755;48.038;14.346;2023-09-30T03:35:00;98134.16;;;17.39;74.31
82171;BME280;71755;48.038;14.346;2023-09-30T03:37:31;98133.09;;;17.40;73.96
82171;BME280;71755;48.038;14.346;2023-09-30T03:39:58;98129.31;;;17.36;74.17
82171;BME280;71755;48.038;14.346;2023-09-30T03:42:24;98122.31;;;17.35;73.69
82171;BME280;71755;48.038;14.346;2023-09-30T03:44:51;98131.22;;;17.36;74.28
82171;BME280;71755;48.038;14.346;2023-09-30T03:47:18;98133.09;;;17.35;74.31
82171;BME280;71755;48.038;14.346;2023-09-30T03:49:45;98136.63;;;17.31;74.42
82171;BME280;71755;48.038;14.346;2023-09-30T03:52:13;98130.16;;;17.27;74.56
82171;BME280;71755;48.038;14.346;2023-09-30T03:54:40;98130.97;;;17.27;74.54
82171;BME280;71755;48.038;14.346;2023-09-30T03:57:07;98128.81;;;17.24;74.76
82171;BME280;71755;48.038;14.346;2023-09-30T03:59:33;98126.94;;;17.25;74.93
82171;BME280;71755;48.038;14.346;2023-09-30T04:01:59;98125.31;;;17.24;75.07
82171;BME280;71755;48.038;14.346;2023-09-30T04:04:25;98133.69;;;17.22;75.54
82171;BME280;71755;48.038;14.346;2023-09-30T04:06:51;98130.97;;;17.22;75.39
82171;BME280;71755;48.038;14.346;2023-09-30T04:09:18;98134.75;;;17.21;76.10
82171;BME280;71755;48.038;14.346;2023-09-30T04:11:45;98129.91;;;17.18;76.01
82171;BME280;71755;48.038;14.346;2023-09-30T04:14:12;98136.41;;;17.17;76.75
82171;BME280;71755;48.038;14.346;2023-09-30T04:16:38;98131.00;;;17.17;77.46
82171;BME280;71755;48.038;14.346;2023-09-30T04:19:05;98144.50;;;17.12;78.06
82171;BME280;71755;48.038;14.346;2023-09-30T04:21:33;98144.50;;;17.02;78.40
82171;BME280;71755;48.038;14.346;2023-09-30T04:24:00;98146.13;;;16.98;78.44
82171;BME280;71755;48.038;14.346;2023-09-30T04:26:27;98145.84;;;16.94;78.49
82171;BME280;71755;48.038;14.346;2023-09-30T04:28:53;98153.69;;;16.91;78.52
82171;BME280;71755;48.038;14.346;2023-09-30T04:31:20;98145.31;;;16.92;78.40
82171;BME280;71755;48.038;14.346;2023-09-30T04:33:49;98149.09;;;16.91;77.96
82171;BME280;71755;48.038;14.346;2023-09-30T04:36:19;98156.38;;;16.91;77.19
82171;BME280;71755;48.038;14.346;2023-09-30T04:38:46;98163.94;;;16.88;77.31
82171;BME280;71755;48.038;14.346;2023-09-30T04:41:13;98163.94;;;16.88;77.83
82171;BME280;71755;48.038;14.346;2023-09-30T04:43:42;98162.31;;;16.87;77.31
82171;BME280;71755;48.038;14.346;2023-09-30T04:46:09;98155.59;;;16.85;78.03
82171;BME280;71755;48.038;14.346;2023-09-30T04:48:38;98156.38;;;16.85;77.17
82171;BME280;71755;48.038;14.346;2023-09-30T04:51:08;98161.53;;;16.82;77.53
82171;BME280;71755;48.038;14.346;2023-09-30T04:53:35;98169.06;;;16.80;76.73
82171;BME280;71755;48.038;14.346;2023-09-30T04:56:03;98176.34;;;16.84;76.59
82171;BME280;71755;48.038;14.346;2023-09-30T04:58:29;98176.91;;;16.81;77.16
82171;BME280;71755;48.038;14.346;2023-09-30T05:00:57;98179.88;;;16.80;76.55
82171;BME280;71755;48.038;14.346;2023-09-30T05:03:24;98192.00;;;16.82;76.23
82171;BME280;71755;48.038;14.346;2023-09-30T05:05:52;98197.13;;;16.84;76.33
82171;BME280;71755;48.038;14.346;2023-09-30T05:08:24;98199.28;;;16.87;76.05
82171;BME280;71755;48.038;14.346;2023-09-30T05:10:51;98201.72;;;16.83;76.55
82171;BME280;71755;48.038;14.346;2023-09-30T05:13:21;98201.19;;;16.86;76.24
82171;BME280;71755;48.038;14.346;2023-09-30T05:15:50;98204.16;;;16.80;77.14
82171;BME280;71755;48.038;14.346;2023-09-30T05:18:17;98212.50;;;16.78;76.82
82171;BME280;71755;48.038;14.346;2023-09-30T05:20:44;98205.78;;;16.76;76.63
82171;BME280;71755;48.038;14.346;2023-09-30T05:23:10;98212.50;;;16.78;76.67
82171;BME280;71755;48.038;14.346;2023-09-30T05:25:39;98215.75;;;16.75;76.78
82171;BME280;71755;48.038;14.346;2023-09-30T05:28:05;98215.75;;;16.75;77.04
82171;BME280;71755;48.038;14.346;2023-09-30T05:30:33;98214.41;;;16.78;77.13
82171;BME280;71755;48.038;14.346;2023-09-30T05:33:00;98215.22;;;16.78;77.04
82171;BME280;71755;48.038;14.346;2023-09-30T05:35:27;98219.25;;;16.76;76.65
82171;BME280;71755;48.038;14.346;2023-09-30T05:37:54;98217.66;;;16.80;76.47
82171;BME280;71755;48.038;14.346;2023-09-30T05:40:21;98218.97;;;16.72;77.40
82171;BME280;71755;48.038;14.346;2023-09-30T05:42:57;98215.75;;;16.75;76.83
82171;BME280;71755;48.038;14.346;2023-09-30T05:45:25;98220.63;;;16.78;77.07
82171;BME280;71755;48.038;14.346;2023-09-30T05:47:53;98221.97;;;16.76;76.88
82171;BME280;71755;48.038;14.346;2023-09-30T05:50:21;98216.84;;;16.79;77.37
82171;BME280;71755;48.038;14.346;2023-09-30T05:52:52;98214.63;;;16.71;78.20
82171;BME280;71755;48.038;14.346;2023-09-30T05:55:19;98220.00;;;16.61;78.86
82171;BME280;71755;48.038;14.346;2023-09-30T05:57:48;98225.94;;;16.58;79.00
82171;BME280;71755;48.038;14.346;2023-09-30T06:00:16;98223.75;;;16.55;79.13
82171;BME280;71755;48.038;14.346;2023-09-30T06:02:49;98225.41;;;16.61;79.56
82171;BME280;71755;48.038;14.346;2023-09-30T06:05:17;98223.25;;;16.63;78.94
82171;BME280;71755;48.038;14.346;2023-09-30T06:07:47;98227.56;;;16.64;78.68
82171;BME280;71755;48.038;14.346;2023-09-30T06:10:13;98227.31;;;16.66;78.66
82171;BME280;71755;48.038;14.346;2023-09-30T06:12:49;98231.63;;;16.67;78.94
82171;BME280;71755;48.038;14.346;2023-09-30T06:15:20;98230.28;;;16.69;78.40
82171;BME280;71755;48.038;14.346;2023-09-30T06:17:52;98229.22;;;16.70;79.24
82171;BME280;71755;48.038;14.346;2023-09-30T06:20:19;98243.50;;;16.66;79.08
82171;BME280;71755;48.038;14.346;2023-09-30T06:22:51;98251.28;;;16.57;79.75
82171;BME280;71755;48.038;14.346;2023-09-30T06:25:20;98241.56;;;16.61;79.51
82171;BME280;71755;48.038;14.346;2023-09-30T06:27:49;98256.69;;;16.62;79.52
82171;BME280;71755;48.038;14.346;2023-09-30T06:30:17;98255.59;;;16.58;80.16
82171;BME280;71755;48.038;14.346;2023-09-30T06:32:46;98255.88;;;16.62;80.31
82171;BME280;71755;48.038;14.346;2023-09-30T06:35:13;98252.91;;;16.63;79.03
82171;BME280;71755;48.038;14.346;2023-09-30T06:37:40;98248.59;;;16.62;79.43
82171;BME280;71755;48.038;14.346;2023-09-30T06:40:06;98244.28;;;16.61;79.49
82171;BME280;71755;48.038;14.346;2023-09-30T06:42:34;98239.44;;;16.63;79.49
82171;BME280;71755;48.038;14.346;2023-09-30T06:45:06;98248.06;;;16.65;79.21
82171;BME280;71755;48.038;14.346;2023-09-30T06:47:33;98241.88;;;16.70;78.53
82171;BME280;71755;48.038;14.346;2023-09-30T06:50:04;98229.25;;;16.80;79.23
82171;BME280;71755;48.038;14.346;2023-09-30T06:52:35;98231.13;;;16.80;78.73
82171;BME280;71755;48.038;14.346;2023-09-30T06:55:02;98230.06;;;16.86;78.82
82171;BME280;71755;48.038;14.346;2023-09-30T06:57:39;98230.59;;;16.83;78.29
82171;BME280;71755;48.038;14.346;2023-09-30T07:00:14;98238.16;;;16.91;79.13
82171;BME280;71755;48.038;14.346;2023-09-30T07:02:41;98233.03;;;17.00;79.13
82171;BME280;71755;48.038;14.346;2023-09-30T07:05:13;98233.84;;;17.00;80.21
82171;BME280;71755;48.038;14.346;2023-09-30T07:07:41;98246.25;;;17.01;79.54
82171;BME280;71755;48.038;14.346;2023-09-30T07:10:11;98240.59;;;17.08;80.25
82171;BME280;71755;48.038;14.346;2023-09-30T07:12:37;98236.56;;;17.15;79.67
82171;BME280;71755;48.038;14.346;2023-09-30T07:15:04;98241.41;;;17.29;78.67
82171;BME280;71755;48.038;14.346;2023-09-30T07:17:32;98249.78;;;17.37;79.19
82171;BME280;71755;48.038;14.346;2023-09-30T07:19:59;98253.53;;;17.41;77.70
82171;BME280;71755;48.038;14.346;2023-09-30T07:22:25;98248.69;;;17.48;77.95
82171;BME280;71755;48.038;14.346;2023-09-30T07:24:52;98243.28;;;17.54;76.45
82171;BME280;71755;48.038;14.346;2023-09-30T07:27:18;98255.72;;;17.60;77.67
82171;BME280;71755;48.038;14.346;2023-09-30T07:29:45;98251.38;;;17.74;77.49
82171;BME280;71755;48.038;14.346;2023-09-30T07:32:10;98252.47;;;17.73;75.76
82171;BME280;71755;48.038;14.346;2023-09-30T07:34:36;98261.13;;;17.70;76.62
82171;BME280;71755;48.038;14.346;2023-09-30T07:37:02;98270.28;;;17.74;75.72
82171;BME280;71755;48.038;14.346;2023-09-30T07:39:30;98262.97;;;17.79;76.12
82171;BME280;71755;48.038;14.346;2023-09-30T07:41:57;98281.34;;;17.83;75.32
82171;BME280;71755;48.038;14.346;2023-09-30T07:44:23;98283.78;;;17.89;73.97
82171;BME280;71755;48.038;14.346;2023-09-30T07:46:49;98280.53;;;17.92;73.48
82171;BME280;71755;48.038;14.346;2023-09-30T07:49:15;98278.38;;;17.89;73.76
82171;BME280;71755;48.038;14.346;2023-09-30T07:51:41;98281.38;;;17.88;74.03
82171;BME280;71755;48.038;14.346;2023-09-30T07:54:07;98278.13;;;17.91;73.61
82171;BME280;71755;48.038;14.346;2023-09-30T07:56:33;98283.78;;;17.89;73.34
82171;BME280;71755;48.038;14.346;2023-09-30T07:58:59;98283.78;;;17.94;74.07
82171;BME280;71755;48.038;14.346;2023-09-30T08:01:25;98291.56;;;18.11;74.32
82171;BME280;71755;48.038;14.346;2023-09-30T08:03:51;98284.53;;;18.10;73.60
82171;BME280;71755;48.038;14.346;2023-09-30T08:06:17;98298.59;;;18.07;73.17
82171;BME280;71755;48.038;14.346;2023-09-30T08:08:43;98293.22;;;18.02;72.62
82171;BME280;71755;48.038;14.346;2023-09-30T08:11:09;98291.06;;;18.04;73.10
82171;BME280;71755;48.038;14.346;2023-09-30T08:13:35;98289.13;;;18.15;73.04
82171;BME280;71755;48.038;14.346;2023-09-30T08:16:02;98291.53;;;18.16;72.74
82171;BME280;71755;48.038;14.346;2023-09-30T08:18:28;98287.47;;;18.29;74.15
82171;BME280;71755;48.038;14.346;2023-09-30T08:20:54;98279.50;;;18.53;72.59
82171;BME280;71755;48.038;14.346;2023-09-30T08:23:21;98272.72;;;18.55;72.05
82171;BME280;71755;48.038;14.346;2023-09-30T08:25:46;98269.28;;;18.39;71.83
82171;BME280;71755;48.038;14.346;2023-09-30T08:28:12;98275.78;;;18.38;72.14
82171;BME280;71755;48.038;14.346;2023-09-30T08:30:38;98280.09;;;18.44;71.38
82171;BME280;71755;48.038;14.346;2023-09-30T08:33:05;98281.41;;;18.62;72.24
82171;BME280;71755;48.038;14.346;2023-09-30T08:35:36;98281.75;;;18.90;72.03
82171;BME280;71755;48.038;14.346;2023-09-30T08:38:04;98286.16;;;18.81;69.70
82171;BME280;71755;48.038;14.346;2023-09-30T08:40:30;98281.94;;;19.09;69.81
82171;BME280;71755;48.038;14.346;2023-09-30T08:42:57;98283.50;;;19.15;69.00
82171;BME280;71755;48.038;14.346;2023-09-30T08:45:24;98277.97;;;18.91;69.54
82171;BME280;71755;48.038;14.346;2023-09-30T08:47:54;98274.84;;;18.73;70.50
82171;BME280;71755;48.038;14.346;2023-09-30T08:50:20;98291.66;;;18.55;70.31
82171;BME280;71755;48.038;14.346;2023-09-30T08:52:47;98285.75;;;18.48;71.28
82171;BME280;71755;48.038;14.346;2023-09-30T08:55:14;98297.38;;;18.49;71.89
82171;BME280;71755;48.038;14.346;2023-09-30T08:57:41;98286.31;;;18.45;71.13
82171;BME280;71755;48.038;14.346;2023-09-30T09:00:10;98280.88;;;18.50;71.21
82171;BME280;71755;48.038;14.346;2023-09-30T09:02:39;98283.34;;;18.41;72.15
82171;BME280;71755;48.038;14.346;2023-09-30T09:05:06;98283.56;;;18.50;71.22
82171;BME280;71755;48.038;14.346;2023-09-30T09:07:33;98290.78;;;18.75;71.14
82171;BME280;71755;48.038;14.346;2023-09-30T09:10:05;98300.31;;;18.67;70.84
82171;BME280;71755;48.038;14.346;2023-09-30T09:12:33;98289.19;;;18.74;70.56
82171;BME280;71755;48.038;14.346;2023-09-30T09:14:59;98285.56;;;18.89;70.07
82171;BME280;71755;48.038;14.346;2023-09-30T09:17:43;98292.75;;;18.64;70.96
82171;BME280;71755;48.038;14.346;2023-09-30T09:20:21;98289.75;;;18.56;72.20
82171;BME280;71755;48.038;14.346;2023-09-30T09:22:52;98302.03;;;18.38;72.54
82171;BME280;71755;48.038;14.346;2023-09-30T09:25:24;98293.28;;;18.56;71.51
82171;BME280;71755;48.038;14.346;2023-09-30T09:27:54;98297.47;;;18.88;70.36
82171;BME280;71755;48.038;14.346;2023-09-30T09:30:27;98291.09;;;19.13;69.79
82171;BME280;71755;48.038;14.346;2023-09-30T09:32:53;98295.31;;;19.29;67.94
82171;BME280;71755;48.038;14.346;2023-09-30T09:35:21;98286.34;;;19.33;69.74
82171;BME280;71755;48.038;14.346;2023-09-30T09:38:07;98287.69;;;19.70;68.12
82171;BME280;71755;48.038;14.346;2023-09-30T09:40:35;98285.47;;;19.77;67.83
82171;BME280;71755;48.038;14.346;2023-09-30T09:43:04;98288.34;;;19.57;67.13
82171;BME280;71755;48.038;14.346;2023-09-30T09:45:35;98286.03;;;19.74;67.85
82171;BME280;71755;48.038;14.346;2023-09-30T09:48:04;98274.09;;;19.41;67.01
82171;BME280;71755;48.038;14.346;2023-09-30T09:50:33;98281.59;;;19.15;68.68
82171;BME280;71755;48.038;14.346;2023-09-30T09:53:02;98285.97;;;19.11;68.67
82171;BME280;71755;48.038;14.346;2023-09-30T09:55:30;98287.47;;;18.88;68.18
82171;BME280;71755;48.038;14.346;2023-09-30T09:57:58;98275.06;;;18.82;68.72
82171;BME280;71755;48.038;14.346;2023-09-30T10:00:28;98282.59;;;18.85;69.33
82171;BME280;71755;48.038;14.346;2023-09-30T10:02:55;98287.19;;;18.90;67.97
82171;BME280;71755;48.038;14.346;2023-09-30T10:05:22;98292.91;;;18.83;69.08
82171;BME280;71755;48.038;14.346;2023-09-30T10:07:57;98294.97;;;19.01;69.18
82171;BME280;71755;48.038;14.346;2023-09-30T10:10:26;98288.94;;;19.49;69.18
82171;BME280;71755;48.038;14.346;2023-09-30T10:12:52;98281.44;;;19.98;65.51
82171;BME280;71755;48.038;14.346;2023-09-30T10:18:04;98284.81;;;19.56;65.41
82171;BME280;71755;48.038;14.346;2023-09-30T10:20:32;98285.50;;;19.72;65.74
82171;BME280;71755;48.038;14.346;2023-09-30T10:25:44;98279.59;;;20.18;62.74
82171;BME280;71755;48.038;14.346;2023-09-30T10:31:18;98279.53;;;20.23;63.44
82171;BME280;71755;48.038;14.346;2023-09-30T10:36:38;98267.31;;;20.49;61.10
82171;BME280;71755;48.038;14.346;2023-09-30T10:39:06;98265.63;;;20.29;60.64
82171;BME280;71755;48.038;14.346;2023-09-30T10:49:50;98267.88;;;19.75;64.19
82171;BME280;71755;48.038;14.346;2023-09-30T10:52:22;98260.16;;;19.58;63.85
82171;BME280;71755;48.038;14.346;2023-09-30T10:54:49;98259.91;;;19.54;64.43
82171;BME280;71755;48.038;14.346;2023-09-30T10:57:26;98249.25;;;19.34;64.18
82171;BME280;71755;48.038;14.346;2023-09-30T11:00:11;98257.13;;;19.25;65.36
82171;BME280;71755;48.038;14.346;2023-09-30T11:02:50;98256.00;;;19.31;65.20
82171;BME280;71755;48.038;14.346;2023-09-30T11:05:18;98258.19;;;19.29;65.00
82171;BME280;71755;48.038;14.346;2023-09-30T11:07:50;98243.06;;;19.23;64.08
82171;BME280;71755;48.038;14.346;2023-09-30T11:10:18;98235.41;;;19.35;64.13
82171;BME280;71755;48.038;14.346;2023-09-30T11:12:57;98229.28;;;19.83;63.00
82171;BME280;71755;48.038;14.346;2023-09-30T11:15:24;98229.38;;;20.20;62.71
82171;BME280;71755;48.038;14.346;2023-09-30T11:17:53;98237.09;;;20.32;61.73
82171;BME280;71755;48.038;14.346;2023-09-30T11:20:19;98229.31;;;20.49;61.48
82171;BME280;71755;48.038;14.346;2023-09-30T11:22:47;98232.97;;;20.16;62.61
82171;BME280;71755;48.038;14.346;2023-09-30T11:25:20;98224.59;;;20.12;61.79
82171;BME280;71755;48.038;14.346;2023-09-30T11:27:47;98225.91;;;19.91;62.38
82171;BME280;71755;48.038;14.346;2023-09-30T11:30:13;98234.56;;;19.93;63.26
82171;BME280;71755;48.038;14.346;2023-09-30T11:32:40;98236.03;;;19.85;62.60
82171;BME280;71755;48.038;14.346;2023-09-30T11:35:23;98229.56;;;19.81;63.31
82171;BME280;71755;48.038;14.346;2023-09-30T11:37:50;98234.03;;;19.67;62.82
82171;BME280;71755;48.038;14.346;2023-09-30T11:40:18;98221.66;;;20.09;62.34
82171;BME280;71755;48.038;14.346;2023-09-30T11:43:09;98224.50;;;20.41;62.03
82171;BME280;71755;48.038;14.346;2023-09-30T11:45:39;98224.03;;;20.58;62.38
82171;BME280;71755;48.038;14.346;2023-09-30T11:48:26;98221.84;;;20.36;61.77
82171;BME280;71755;48.038;14.346;2023-09-30T11:50:52;98232.22;;;20.10;61.48
82171;BME280;71755;48.038;14.346;2023-09-30T11:53:21;98225.47;;;20.08;61.25
82171;BME280;71755;48.038;14.346;2023-09-30T11:55:49;98232.97;;;20.16;62.17
82171;BME280;71755;48.038;14.346;2023-09-30T11:58:15;98233.13;;;20.01;61.53
82171;BME280;71755;48.038;14.346;2023-09-30T12:00:44;98234.41;;;19.84;61.06
82171;BME280;71755;48.038;14.346;2023-09-30T12:03:10;98238.22;;;19.83;60.52
82171;BME280;71755;48.038;14.346;2023-09-30T12:05:36;98232.19;;;20.34;61.40
82171;BME280;71755;48.038;14.346;2023-09-30T12:08:03;98217.47;;;20.40;59.23
82171;BME280;71755;48.038;14.346;2023-09-30T12:10:29;98220.19;;;20.40;58.57
82171;BME280;71755;48.038;14.346;2023-09-30T12:12:56;98226.47;;;20.36;58.47
82171;BME280;71755;48.038;14.346;2023-09-30T12:15:23;98222.41;;;20.14;58.49
82171;BME280;71755;48.038;14.346;2023-09-30T12:17:48;98217.13;;;20.23;58.08
82171;BME280;71755;48.038;14.346;2023-09-30T12:20:15;98223.72;;;20.17;57.93
82171;BME280;71755;48.038;14.346;2023-09-30T12:22:43;98210.53;;;20.29;58.88
82171;BME280;71755;48.038;14.346;2023-09-30T12:25:09;98215.03;;;20.39;56.74
82171;BME280;71755;48.038;14.346;2023-09-30T12:27:35;98213.63;;;20.22;57.69
82171;BME280;71755;48.038;14.346;2023-09-30T12:30:01;98216.78;;;20.29;56.59
82171;BME280;71755;48.038;14.346;2023-09-30T12:32:30;98221.25;;;20.82;55.66
82171;BME280;71755;48.038;14.346;2023-09-30T12:34:56;98212.28;;;21.00;55.61
82171;BME280;71755;48.038;14.346;2023-09-30T12:37:22;98220.22;;;20.59;55.80
82171;BME280;71755;48.038;14.346;2023-09-30T12:39:49;98211.50;;;20.38;56.98
82171;BME280;71755;48.038;14.346;2023-09-30T12:42:15;98205.47;;;20.46;55.60
82171;BME280;71755;48.038;14.346;2023-09-30T12:44:41;98206.44;;;20.55;55.56
82171;BME280;71755;48.038;14.346;2023-09-30T12:47:08;98209.41;;;20.73;52.59
82171;BME280;71755;48.038;14.346;2023-09-30T12:49:34;98210.94;;;20.98;52.03
82171;BME280;71755;48.038;14.346;2023-09-30T12:52:01;98197.50;;;21.25;51.64
82171;BME280;71755;48.038;14.346;2023-09-30T12:54:27;98193.97;;;21.25;52.47
82171;BME280;71755;48.038;14.346;2023-09-30T12:56:53;98187.66;;;21.10;50.70
82171;BME280;71755;48.038;14.346;2023-09-30T12:59:19;98186.44;;;21.35;50.96
82171;BME280;71755;48.038;14.346;2023-09-30T13:01:45;98186.53;;;21.11;50.66
82171;BME280;71755;48.038;14.346;2023-09-30T13:04:12;98180.00;;;21.31;50.86
82171;BME280;71755;48.038;14.346;2023-09-30T13:06:38;98179.50;;;21.43;51.63
82171;BME280;71755;48.038;14.346;2023-09-30T13:09:04;98190.16;;;21.26;51.27
82171;BME280;71755;48.038;14.346;2023-09-30T13:11:31;98187.75;;;21.38;50.62
82171;BME280;71755;48.038;14.346;2023-09-30T13:13:57;98176.91;;;21.51;50.58